createdAt,value
2022-11-20T00:02:54.678Z,64.65
2022-11-20T00:08:27.289Z,64.77
2022-11-20T00:14:00.817Z,65.01
2022-11-20T00:19:32.111Z,65.27
2022-11-20T00:25:03.788Z,64.84
2022-11-20T00:30:34.872Z,64.57
2022-11-20T00:36:08.678Z,65.00
2022-11-20T00:41:40.030Z,65.06
2022-11-20T00:47:12.722Z,64.79
2022-11-20T00:52:44.022Z,64.63
2022-11-20T00:58:15.023Z,65.14
2022-11-20T01:03:48.223Z,64.91
2022-11-20T01:09:19.420Z,65.04
2022-11-20T01:14:51.213Z,65.17
2022-11-20T01:20:22.130Z,64.88
2022-11-20T01:25:53.288Z,64.70
2022-11-20T01:31:26.923Z,65.00
2022-11-20T01:36:58.470Z,65.19
2022-11-20T01:42:48.103Z,65.16
2022-11-20T01:48:21.633Z,64.77
2022-11-20T01:53:55.607Z,64.55
2022-11-20T01:59:27.949Z,64.85
2022-11-20T02:05:04.560Z,65.30
2022-11-20T02:10:36.466Z,64.82
2022-11-20T02:16:22.302Z,64.86
2022-11-20T02:22:23.014Z,64.61
2022-11-20T02:27:54.395Z,64.72
2022-11-20T02:33:25.903Z,65.12
2022-11-20T02:38:56.878Z,64.72
2022-11-20T02:44:28.058Z,65.28
2022-11-20T02:49:59.768Z,65.26
2022-11-20T02:55:30.910Z,65.47
2022-11-20T03:01:02.009Z,64.84
2022-11-20T03:06:33.397Z,65.11
2022-11-20T03:12:04.847Z,64.65
2022-11-20T03:17:36.095Z,64.71
2022-11-20T03:23:07.502Z,64.82
2022-11-20T03:28:39.265Z,65.15
2022-11-20T03:34:12.429Z,65.25
2022-11-20T03:39:43.500Z,65.14
2022-11-20T03:45:16.213Z,65.28
2022-11-20T03:50:48.840Z,64.89
2022-11-20T03:56:22.635Z,65.29
2022-11-20T04:01:53.688Z,65.00
2022-11-20T04:07:24.960Z,65.30
2022-11-20T04:12:56.056Z,65.07
2022-11-20T04:18:27.158Z,65.18
2022-11-20T04:23:58.698Z,65.12
2022-11-20T04:29:30.146Z,65.41
2022-11-20T04:35:01.596Z,65.51
2022-11-20T04:40:33.155Z,65.02
2022-11-20T04:46:04.340Z,65.30
2022-11-20T04:51:36.219Z,64.99
2022-11-20T04:57:12.939Z,65.56
2022-11-20T05:02:45.788Z,65.34
2022-11-20T05:08:17.038Z,65.57
2022-11-20T05:13:50.240Z,65.46
2022-11-20T05:19:21.991Z,65.03
2022-11-20T05:24:53.066Z,65.40
2022-11-20T05:30:24.380Z,65.34
2022-11-20T05:35:59.808Z,65.01
2022-11-20T05:41:31.236Z,65.40
2022-11-20T05:47:02.217Z,65.62
2022-11-20T05:52:33.424Z,65.26
2022-11-20T05:58:04.983Z,65.46
2022-11-20T06:03:36.555Z,65.25
2022-11-20T06:09:07.939Z,65.53
2022-11-20T06:14:39.223Z,65.21
2022-11-20T06:20:11.343Z,65.80
2022-11-20T06:25:44.086Z,65.47
2022-11-20T06:31:17.157Z,65.61
2022-11-20T06:36:48.222Z,65.09
2022-11-20T06:42:19.578Z,65.63
2022-11-20T06:47:51.039Z,65.44
2022-11-20T06:53:23.717Z,65.63
2022-11-20T06:58:55.021Z,65.12
2022-11-20T07:04:26.439Z,65.02
2022-11-20T07:09:58.164Z,65.44
2022-11-20T07:15:29.893Z,65.04
2022-11-20T07:21:02.916Z,65.15
2022-11-20T07:26:33.894Z,64.79
2022-11-20T07:32:05.536Z,65.19
2022-11-20T07:37:37.304Z,64.41
2022-11-20T07:43:08.946Z,64.86
2022-11-20T07:48:40.196Z,65.41
2022-11-20T07:54:11.529Z,65.16
2022-11-20T07:59:43.558Z,65.43
2022-11-20T08:05:14.872Z,65.18
2022-11-20T08:10:46.012Z,65.40
2022-11-20T08:16:17.131Z,65.24
2022-11-20T08:21:48.708Z,64.94
2022-11-20T08:27:25.362Z,65.33
2022-11-20T08:33:21.179Z,65.09
2022-11-20T08:38:55.039Z,64.90
2022-11-20T08:44:29.768Z,65.33
2022-11-20T08:50:01.789Z,65.63
2022-11-20T08:55:33.477Z,65.28
2022-11-20T09:05:23.206Z,64.48
2022-11-20T09:10:55.853Z,65.07
2022-11-20T09:16:32.207Z,65.23
2022-11-20T09:22:05.013Z,65.74
2022-11-20T09:27:36.937Z,65.72
2022-11-20T09:33:08.451Z,65.45
2022-11-20T09:38:39.920Z,65.02
2022-11-20T09:44:43.587Z,66.01
2022-11-20T09:50:52.681Z,66.25
2022-11-20T09:56:25.022Z,66.50
2022-11-20T10:01:57.019Z,66.50
2022-11-20T10:07:41.857Z,66.07
2022-11-20T10:13:14.112Z,66.39
2022-11-20T10:19:20.270Z,66.34
2022-11-20T10:25:08.670Z,66.59
2022-11-20T10:30:43.996Z,66.15
2022-11-20T10:36:37.909Z,66.12
2022-11-20T10:42:15.839Z,66.18
2022-11-20T10:47:47.345Z,66.13
2022-11-20T10:53:44.823Z,66.59
2022-11-20T10:59:50.698Z,65.83
2022-11-20T11:05:21.744Z,66.46
2022-11-20T11:11:00.692Z,66.04
2022-11-20T11:16:31.833Z,66.50
2022-11-20T11:22:12.489Z,65.95
2022-11-20T11:27:50.429Z,66.79
2022-11-20T11:33:32.579Z,66.96
2022-11-20T11:39:05.982Z,66.87
2022-11-20T11:44:56.650Z,66.23
2022-11-20T11:50:30.306Z,66.55
2022-11-20T11:56:07.331Z,66.58
2022-11-20T12:02:14.273Z,66.90
2022-11-20T12:07:52.513Z,66.46
2022-11-20T12:13:43.977Z,67.14
2022-11-20T12:19:15.757Z,66.90
2022-11-20T12:25:08.548Z,67.16
2022-11-20T12:31:01.202Z,67.30
2022-11-20T12:36:35.225Z,66.78
2022-11-20T12:43:26.737Z,66.95
2022-11-20T12:49:06.452Z,66.80
2022-11-20T12:54:51.895Z,67.02
2022-11-20T13:00:24.712Z,67.20
2022-11-20T13:06:04.599Z,66.90
2022-11-20T13:11:44.480Z,66.86
2022-11-20T13:17:29.021Z,67.44
2022-11-20T13:23:01.110Z,66.78
2022-11-20T13:28:33.395Z,67.43
2022-11-20T13:34:05.965Z,67.39
2022-11-20T13:39:38.136Z,67.15
2022-11-20T13:45:23.888Z,67.49
2022-11-20T13:51:01.003Z,66.93
2022-11-20T13:57:03.336Z,67.52
2022-11-20T14:02:35.116Z,67.59
2022-11-20T14:08:08.136Z,67.28
2022-11-20T14:13:39.366Z,67.19
2022-11-20T14:19:22.844Z,67.67
2022-11-20T14:25:16.652Z,67.29
2022-11-20T14:30:51.334Z,67.97
2022-11-20T14:36:24.618Z,67.32
2022-11-20T14:41:56.004Z,67.68
2022-11-20T14:47:28.705Z,67.89
2022-11-20T14:53:02.320Z,68.05
2022-11-20T14:58:34.582Z,67.92
2022-11-20T15:04:12.408Z,68.10
2022-11-20T15:09:43.722Z,68.34
2022-11-20T15:15:30.641Z,67.94
2022-11-20T15:21:03.948Z,68.28
2022-11-20T15:26:36.022Z,68.38
2022-11-20T15:32:13.173Z,68.40
2022-11-20T15:37:44.760Z,68.22
2022-11-20T15:43:16.111Z,68.06
2022-11-20T15:48:53.643Z,68.12
2022-11-20T15:54:25.112Z,68.45
2022-11-20T15:59:56.596Z,68.14
2022-11-20T16:05:31.040Z,68.62
2022-11-20T16:11:02.771Z,68.62
2022-11-20T16:16:36.295Z,68.12
2022-11-20T16:22:07.305Z,68.32
2022-11-20T16:27:38.735Z,68.32
2022-11-20T16:33:15.202Z,68.10
2022-11-20T16:38:46.726Z,68.44
2022-11-20T16:44:18.965Z,68.53
2022-11-20T16:49:50.513Z,68.09
2022-11-20T16:55:21.388Z,68.31
2022-11-20T17:00:52.382Z,68.43
2022-11-20T17:06:26.416Z,68.25
2022-11-20T17:11:57.607Z,68.19
2022-11-20T17:17:28.776Z,68.67
2022-11-20T17:22:59.909Z,68.26
2022-11-20T17:28:32.079Z,68.06
2022-11-20T17:34:03.236Z,68.15
2022-11-20T17:39:34.583Z,68.75
2022-11-20T17:45:05.892Z,68.23
2022-11-20T17:50:37.099Z,68.40
2022-11-20T17:56:27.210Z,68.07
2022-11-20T18:02:03.316Z,68.18
2022-11-20T18:07:40.262Z,68.24
2022-11-20T18:13:12.808Z,68.55
2022-11-20T18:18:43.973Z,68.78
2022-11-20T18:24:15.529Z,68.70
2022-11-20T18:29:48.726Z,68.43
2022-11-20T18:35:19.715Z,68.87
2022-11-20T18:40:50.947Z,68.90
2022-11-20T18:46:22.417Z,68.13
2022-11-20T18:51:53.963Z,68.59
2022-11-20T18:57:27.276Z,68.28
2022-11-20T19:02:58.631Z,68.58
2022-11-20T19:08:29.847Z,69.09
2022-11-20T19:14:01.091Z,68.39
2022-11-20T19:19:32.208Z,68.43
2022-11-20T19:25:03.746Z,68.74
2022-11-20T19:30:34.775Z,69.16
2022-11-20T19:36:27.642Z,69.21
2022-11-20T19:41:58.624Z,68.62
2022-11-20T19:47:52.647Z,69.17
2022-11-20T19:53:21.017Z,68.57
2022-11-20T19:58:54.185Z,69.26
2022-11-20T20:04:25.554Z,69.23
2022-11-20T20:09:56.470Z,69.52
2022-11-20T20:15:27.795Z,68.82
2022-11-20T20:21:07.088Z,68.81
2022-11-20T20:26:38.334Z,69.25
2022-11-20T20:32:09.511Z,68.91
2022-11-20T20:37:40.613Z,69.08
2022-11-20T20:43:11.917Z,69.37
2022-11-20T20:48:42.767Z,68.96
2022-11-20T20:54:14.047Z,68.67
2022-11-20T20:59:45.548Z,68.96
2022-11-20T21:05:16.597Z,68.90
2022-11-20T21:10:48.799Z,69.14
2022-11-20T21:16:22.707Z,69.27
2022-11-20T21:21:59.757Z,69.42
2022-11-20T21:27:31.019Z,69.32
2022-11-20T21:33:02.207Z,70.00
2022-11-20T21:38:34.586Z,69.40
2022-11-20T21:44:30.174Z,70.12
2022-11-20T21:49:57.832Z,70.28
2022-11-20T21:55:29.168Z,70.23
2022-11-20T22:01:00.660Z,70.30
2022-11-20T22:06:34.503Z,70.32
2022-11-20T22:12:05.841Z,70.45
2022-11-20T22:17:54.993Z,69.88
2022-11-20T22:23:26.168Z,70.35
2022-11-20T22:28:58.670Z,70.45
2022-11-20T22:34:29.746Z,69.89
2022-11-20T22:40:01.018Z,69.96
2022-11-20T22:45:32.579Z,70.65
2022-11-20T22:51:08.662Z,70.66
2022-11-20T22:56:40.528Z,70.84
2022-11-20T23:02:11.620Z,71.00
2022-11-20T23:07:43.988Z,71.15
2022-11-20T23:13:14.705Z,70.71
2022-11-20T23:18:46.367Z,70.45
2022-11-20T23:24:17.306Z,70.58
2022-11-20T23:29:48.514Z,70.88
2022-11-20T23:35:19.604Z,70.77
2022-11-20T23:40:52.003Z,71.20
2022-11-20T23:46:23.081Z,71.10
2022-11-20T23:51:54.306Z,70.74
2022-11-20T23:57:25.783Z,71.21
